createdAt,value
2019-02-24T00:01:29.657Z,1.60
2019-02-24T00:03:58.074Z,1.60
2019-02-24T00:06:26.451Z,1.60
2019-02-24T00:08:54.864Z,1.60
2019-02-24T00:11:23.306Z,1.50
2019-02-24T00:13:51.688Z,1.50
2019-02-24T00:16:20.096Z,1.50
2019-02-24T00:18:50.550Z,1.50
2019-02-24T00:21:18.949Z,1.60
2019-02-24T00:23:47.515Z,1.60
2019-02-24T00:26:15.941Z,1.60
2019-02-24T00:28:44.345Z,1.60
2019-02-24T00:31:12.740Z,1.50
2019-02-24T00:33:41.202Z,1.50
2019-02-24T00:36:09.610Z,1.50
2019-02-24T00:38:38.013Z,1.50
2019-02-24T00:41:06.427Z,1.50
2019-02-24T00:43:35.833Z,1.50
2019-02-24T00:46:04.540Z,1.50
2019-02-24T00:48:32.993Z,1.50
2019-02-24T00:51:01.351Z,1.50
2019-02-24T00:53:29.782Z,1.50
2019-02-24T00:55:58.230Z,1.50
2019-02-24T00:58:28.597Z,1.50
2019-02-24T01:00:58.010Z,1.50
2019-02-24T01:03:26.459Z,1.50
2019-02-24T01:05:54.908Z,1.50
2019-02-24T01:08:25.264Z,1.60
2019-02-24T01:10:53.723Z,1.50
2019-02-24T01:13:22.136Z,1.50
2019-02-24T01:15:50.592Z,1.50
2019-02-24T01:18:19.004Z,1.50
2019-02-24T01:20:47.398Z,1.50
2019-02-24T01:23:15.800Z,1.50
2019-02-24T01:25:44.198Z,1.50
2019-02-24T01:28:12.655Z,1.50
2019-02-24T01:30:41.033Z,1.50
2019-02-24T01:33:09.470Z,1.50
2019-02-24T01:35:37.890Z,1.50
2019-02-24T01:38:06.317Z,1.50
2019-02-24T01:40:34.736Z,1.50
2019-02-24T01:43:03.170Z,1.40
2019-02-24T01:45:31.606Z,1.40
2019-02-24T01:48:00.051Z,1.40
2019-02-24T01:50:28.621Z,1.40
2019-02-24T01:52:57.039Z,1.40
2019-02-24T01:55:27.355Z,1.40
2019-02-24T01:57:55.804Z,1.40
2019-02-24T02:00:25.448Z,1.40
2019-02-24T02:02:54.762Z,1.50
2019-02-24T02:05:24.207Z,1.50
2019-02-24T02:07:52.587Z,1.50
2019-02-24T02:10:21.017Z,1.40
2019-02-24T02:12:49.443Z,1.40
2019-02-24T02:15:17.850Z,1.40
2019-02-24T02:17:46.219Z,1.50
2019-02-24T02:20:14.708Z,1.50
2019-02-24T02:22:43.085Z,1.50
2019-02-24T02:25:11.504Z,1.50
2019-02-24T02:27:40.350Z,1.50
2019-02-24T02:30:10.697Z,1.50
2019-02-24T02:32:44.243Z,1.50
2019-02-24T02:35:12.640Z,1.50
2019-02-24T02:37:41.032Z,1.50
2019-02-24T02:40:09.429Z,1.50
2019-02-24T02:42:37.825Z,1.50
2019-02-24T02:45:08.194Z,1.50
2019-02-24T02:47:36.593Z,1.50
2019-02-24T02:50:06.235Z,1.50
2019-02-24T02:52:34.677Z,1.50
2019-02-24T02:55:05.741Z,1.50
2019-02-24T02:57:34.143Z,1.50
2019-02-24T03:00:03.111Z,1.50
2019-02-24T03:02:31.509Z,1.50
2019-02-24T03:04:59.889Z,1.50
2019-02-24T03:07:30.008Z,1.50
2019-02-24T03:09:58.393Z,1.40
2019-02-24T03:12:26.827Z,1.40
2019-02-24T03:14:55.269Z,1.40
2019-02-24T03:17:24.361Z,1.40
2019-02-24T03:19:53.720Z,1.50
2019-02-24T03:22:22.125Z,1.40
2019-02-24T03:24:50.529Z,1.40
2019-02-24T03:27:19.239Z,1.40
2019-02-24T03:29:47.678Z,1.40
2019-02-24T03:32:16.083Z,1.40
2019-02-24T03:34:45.943Z,1.40
2019-02-24T03:37:14.397Z,1.30
2019-02-24T03:39:42.812Z,1.30
2019-02-24T03:42:11.257Z,1.40
2019-02-24T03:44:39.697Z,1.40
2019-02-24T03:47:08.080Z,1.40
2019-02-24T03:49:36.473Z,1.40
2019-02-24T03:52:04.897Z,1.40
2019-02-24T03:54:33.326Z,1.40
2019-02-24T03:57:01.743Z,1.40
2019-02-24T03:59:30.239Z,1.40
2019-02-24T04:01:58.689Z,1.40
2019-02-24T04:04:27.144Z,1.40
2019-02-24T04:07:05.371Z,1.40
2019-02-24T04:09:33.785Z,1.40
2019-02-24T04:12:02.249Z,1.50
2019-02-24T04:14:32.604Z,1.50
2019-02-24T04:17:01.034Z,1.50
2019-02-24T04:19:29.447Z,1.50
2019-02-24T04:21:57.828Z,1.50
2019-02-24T04:24:26.249Z,1.50
2019-02-24T04:26:54.653Z,1.60
2019-02-24T04:29:25.191Z,1.60
2019-02-24T04:31:55.157Z,1.80
2019-02-24T04:34:23.654Z,1.60
2019-02-24T04:36:52.058Z,1.70
2019-02-24T04:39:20.487Z,1.70
2019-02-24T04:41:48.866Z,1.70
2019-02-24T04:44:17.270Z,1.70
2019-02-24T04:46:46.953Z,1.70
2019-02-24T04:49:16.303Z,1.70
2019-02-24T04:51:45.102Z,1.70
2019-02-24T04:54:13.509Z,1.70
2019-02-24T04:56:41.978Z,1.70
2019-02-24T04:59:10.431Z,1.70
2019-02-24T05:01:38.828Z,1.60
2019-02-24T05:04:07.227Z,1.60
2019-02-24T05:06:35.635Z,1.60
2019-02-24T05:09:04.308Z,1.60
2019-02-24T05:11:32.710Z,1.60
2019-02-24T05:14:01.087Z,1.60
2019-02-24T05:16:29.907Z,1.60
2019-02-24T05:18:58.287Z,1.70
2019-02-24T05:21:26.696Z,1.60
2019-02-24T05:23:55.118Z,1.60
2019-02-24T05:26:23.500Z,1.60
2019-02-24T05:28:51.895Z,1.60
2019-02-24T05:31:20.303Z,1.60
2019-02-24T05:33:48.705Z,1.60
2019-02-24T05:36:17.109Z,1.60
2019-02-24T05:38:45.527Z,1.70
2019-02-24T05:41:14.044Z,1.70
2019-02-24T05:43:42.451Z,1.70
2019-02-24T05:46:10.903Z,1.80
2019-02-24T05:48:45.046Z,1.80
2019-02-24T05:51:13.434Z,1.70
2019-02-24T05:53:41.849Z,1.70
2019-02-24T05:56:10.254Z,1.60
2019-02-24T05:58:38.701Z,1.60
2019-02-24T06:01:07.392Z,1.60
2019-02-24T06:03:35.785Z,1.50
2019-02-24T06:06:04.214Z,1.50
2019-02-24T06:08:33.664Z,1.50
2019-02-24T06:11:02.172Z,1.50
2019-02-24T06:13:30.560Z,1.50
2019-02-24T06:15:58.957Z,1.50
2019-02-24T06:18:27.363Z,1.50
2019-02-24T06:20:55.807Z,1.50
2019-02-24T06:23:24.495Z,1.60
2019-02-24T06:25:53.188Z,1.60
2019-02-24T06:28:21.897Z,1.60
2019-02-24T06:30:50.348Z,1.70
2019-02-24T06:33:18.753Z,1.70
2019-02-24T06:35:47.137Z,1.70
2019-02-24T06:38:15.570Z,1.70
2019-02-24T06:40:44.898Z,1.70
2019-02-24T06:43:13.517Z,1.80
2019-02-24T06:45:41.919Z,1.80
2019-02-24T06:48:10.317Z,1.90
2019-02-24T06:50:55.275Z,1.90
2019-02-24T06:53:23.705Z,2.00
2019-02-24T06:55:52.391Z,2.00
2019-02-24T06:58:20.804Z,2.00
2019-02-24T07:00:49.190Z,2.10
2019-02-24T07:03:17.574Z,2.00
2019-02-24T07:05:46.067Z,2.10
2019-02-24T07:08:14.553Z,2.10
2019-02-24T07:10:42.977Z,2.10
2019-02-24T07:13:11.360Z,2.20
2019-02-24T07:15:39.778Z,2.20
2019-02-24T07:18:08.170Z,2.30
2019-02-24T07:20:38.607Z,2.40
2019-02-24T07:23:09.011Z,2.50
2019-02-24T07:25:40.682Z,2.60
2019-02-24T07:28:10.102Z,2.70
2019-02-24T07:30:38.511Z,2.80
2019-02-24T07:33:06.978Z,2.90
2019-02-24T07:35:35.400Z,2.90
2019-02-24T07:38:04.796Z,2.90
2019-02-24T07:40:33.218Z,2.90
2019-02-24T07:43:02.594Z,3.00
2019-02-24T07:45:31.011Z,3.10
2019-02-24T07:47:59.408Z,3.20
2019-02-24T07:50:28.214Z,3.30
2019-02-24T07:52:56.525Z,3.50
2019-02-24T07:55:24.960Z,3.90
2019-02-24T07:57:53.365Z,5.00
2019-02-24T08:00:21.756Z,5.40
2019-02-24T08:02:50.168Z,5.50
2019-02-24T08:05:18.608Z,5.40
2019-02-24T08:07:47.026Z,5.20
2019-02-24T08:10:15.418Z,5.00
2019-02-24T08:12:43.851Z,4.90
2019-02-24T08:15:12.257Z,5.00
2019-02-24T08:17:40.656Z,5.10
2019-02-24T08:20:10.088Z,5.30
2019-02-24T08:22:40.405Z,5.40
2019-02-24T08:25:08.795Z,5.20
2019-02-24T08:27:37.192Z,5.10
2019-02-24T08:30:09.812Z,4.90
2019-02-24T08:32:40.227Z,4.80
2019-02-24T08:35:09.092Z,4.60
2019-02-24T08:37:38.623Z,4.50
2019-02-24T08:40:08.347Z,4.50
2019-02-24T08:42:37.066Z,4.50
2019-02-24T08:45:08.688Z,4.60
2019-02-24T08:47:37.115Z,4.80
2019-02-24T08:50:08.991Z,4.90
2019-02-24T08:52:37.411Z,5.00
2019-02-24T08:55:12.651Z,5.10
2019-02-24T08:57:41.995Z,5.20
2019-02-24T09:00:13.019Z,5.20
2019-02-24T09:02:41.839Z,5.30
2019-02-24T09:05:10.276Z,5.30
2019-02-24T09:07:38.708Z,5.20
2019-02-24T09:10:09.074Z,5.20
2019-02-24T09:12:37.770Z,5.20
2019-02-24T09:15:11.410Z,5.30
2019-02-24T09:17:39.832Z,5.40
2019-02-24T09:20:10.965Z,5.60
2019-02-24T09:22:39.420Z,5.90
2019-02-24T09:25:08.403Z,6.30
2019-02-24T09:27:36.800Z,7.20
2019-02-24T09:30:09.552Z,6.90
2019-02-24T09:32:37.978Z,7.20
2019-02-24T09:35:07.733Z,7.50
2019-02-24T09:37:36.395Z,8.00
2019-02-24T09:40:08.139Z,8.30
2019-02-24T09:42:36.569Z,8.60
2019-02-24T09:45:07.582Z,8.90
2019-02-24T09:47:35.996Z,9.20
2019-02-24T09:50:06.543Z,9.30
2019-02-24T09:52:35.307Z,9.10
2019-02-24T09:55:04.398Z,9.00
2019-02-24T09:57:32.800Z,8.70
2019-02-24T10:00:01.567Z,8.70
2019-02-24T10:02:30.054Z,9.10
2019-02-24T10:04:58.486Z,9.40
2019-02-24T10:07:26.867Z,9.30
2019-02-24T10:09:55.575Z,9.30
2019-02-24T10:12:23.962Z,9.10
2019-02-24T10:14:52.347Z,8.80
2019-02-24T10:17:20.777Z,8.50
2019-02-24T10:19:49.194Z,8.30
2019-02-24T10:22:17.625Z,8.10
2019-02-24T10:24:46.008Z,7.90
2019-02-24T10:27:14.445Z,7.70
2019-02-24T10:29:42.942Z,7.50
2019-02-24T10:32:11.833Z,7.40
2019-02-24T10:34:40.302Z,7.30
2019-02-24T10:37:08.748Z,7.20
2019-02-24T10:39:38.215Z,7.10
2019-02-24T10:42:06.647Z,7.10
2019-02-24T10:44:36.043Z,7.10
2019-02-24T10:47:04.619Z,7.00
2019-02-24T10:49:33.018Z,6.90
2019-02-24T10:52:01.443Z,6.90
2019-02-24T10:54:29.956Z,6.90
2019-02-24T10:56:58.390Z,6.90
2019-02-24T10:59:35.108Z,6.90
2019-02-24T11:02:03.546Z,6.90
2019-02-24T11:04:31.989Z,7.10
2019-02-24T11:07:03.296Z,6.70
2019-02-24T11:09:38.612Z,6.60
2019-02-24T11:12:08.852Z,6.60
2019-02-24T11:14:37.184Z,6.60
2019-02-24T11:17:05.588Z,6.60
2019-02-24T11:19:34.005Z,6.60
2019-02-24T11:22:02.374Z,7.00
2019-02-24T11:24:30.856Z,7.50
2019-02-24T11:26:59.289Z,7.70
2019-02-24T11:29:28.713Z,8.00
2019-02-24T11:31:58.088Z,8.20
2019-02-24T11:34:26.501Z,8.00
2019-02-24T11:36:54.965Z,7.90
2019-02-24T11:39:25.289Z,7.80
2019-02-24T11:41:53.748Z,7.70
2019-02-24T11:46:52.256Z,7.50
2019-02-24T11:49:20.664Z,7.30
2019-02-24T11:51:49.071Z,7.30
2019-02-24T11:54:17.460Z,7.30
2019-02-24T11:56:45.918Z,7.30
2019-02-24T11:59:15.246Z,7.20
2019-02-24T12:01:47.583Z,7.10
2019-02-24T12:04:17.632Z,7.10
2019-02-24T12:06:46.130Z,7.00
2019-02-24T12:09:15.257Z,7.10
2019-02-24T12:11:45.023Z,7.10
2019-02-24T12:14:13.418Z,7.10
2019-02-24T12:16:45.194Z,7.10
2019-02-24T12:19:13.604Z,7.00
2019-02-24T12:21:42.948Z,7.10
2019-02-24T12:24:11.396Z,7.10
2019-02-24T12:26:39.899Z,7.10
2019-02-24T12:29:09.194Z,7.00
2019-02-24T12:31:37.597Z,7.00
2019-02-24T12:34:06.076Z,7.00
2019-02-24T12:36:34.514Z,7.00
2019-02-24T12:39:03.772Z,7.00
2019-02-24T12:41:32.277Z,6.90
2019-02-24T12:44:00.672Z,6.90
2019-02-24T12:46:29.251Z,6.90
2019-02-24T12:48:57.610Z,6.90
2019-02-24T12:51:26.067Z,6.80
2019-02-24T12:53:54.448Z,6.80
2019-02-24T12:56:22.871Z,6.80
2019-02-24T12:58:51.263Z,6.70
2019-02-24T13:01:19.644Z,6.70
2019-02-24T13:03:48.101Z,6.70
2019-02-24T13:06:17.442Z,6.70
2019-02-24T13:08:46.104Z,6.70
2019-02-24T13:11:14.488Z,6.60
2019-02-24T13:13:42.874Z,6.60
2019-02-24T13:16:11.290Z,6.60
2019-02-24T13:18:39.715Z,6.50
2019-02-24T13:21:09.083Z,6.50
2019-02-24T13:23:41.173Z,6.50
2019-02-24T13:26:09.573Z,6.60
2019-02-24T13:28:37.990Z,6.70
2019-02-24T13:31:06.421Z,6.70
2019-02-24T13:33:34.824Z,6.70
2019-02-24T13:36:03.488Z,6.70
2019-02-24T13:38:31.918Z,6.70
2019-02-24T13:41:06.980Z,6.70
2019-02-24T13:43:36.905Z,6.70
2019-02-24T13:46:05.291Z,6.70
2019-02-24T13:48:33.757Z,6.60
2019-02-24T13:51:02.219Z,6.60
2019-02-24T13:53:30.629Z,6.50
2019-02-24T13:55:59.027Z,6.60
2019-02-24T13:58:27.534Z,6.50
2019-02-24T14:00:55.912Z,6.50
2019-02-24T14:03:25.328Z,6.60
2019-02-24T14:05:53.732Z,6.60
2019-02-24T14:08:22.956Z,6.60
2019-02-24T14:10:55.095Z,6.70
2019-02-24T14:13:23.543Z,6.70
2019-02-24T14:15:51.953Z,6.70
2019-02-24T14:18:20.387Z,6.70
2019-02-24T14:20:48.808Z,6.70
2019-02-24T14:23:18.118Z,6.60
2019-02-24T14:25:50.317Z,6.50
2019-02-24T14:28:18.777Z,6.50
2019-02-24T14:30:47.460Z,6.40
2019-02-24T14:33:15.888Z,6.40
2019-02-24T14:35:44.269Z,6.40
2019-02-24T14:38:13.643Z,6.50
2019-02-24T14:40:42.483Z,6.60
2019-02-24T14:43:10.884Z,6.60
2019-02-24T14:45:39.287Z,6.60
2019-02-24T14:48:07.754Z,6.60
2019-02-24T14:50:36.248Z,6.60
2019-02-24T14:53:07.921Z,6.60
2019-02-24T14:55:36.336Z,6.50
2019-02-24T14:58:06.105Z,6.50
2019-02-24T15:00:40.464Z,6.40
2019-02-24T15:03:08.833Z,6.40
2019-02-24T15:05:37.312Z,6.30
2019-02-24T15:08:05.737Z,6.30
2019-02-24T15:10:39.924Z,6.30
2019-02-24T15:13:08.370Z,6.30
2019-02-24T15:15:38.252Z,6.30
2019-02-24T15:18:07.107Z,6.30
2019-02-24T15:20:35.493Z,6.30
2019-02-24T15:23:03.882Z,6.40
2019-02-24T15:25:33.308Z,6.30
2019-02-24T15:28:02.148Z,6.30
2019-02-24T15:30:38.307Z,6.30
2019-02-24T15:33:06.836Z,6.30
2019-02-24T15:35:35.287Z,6.20
2019-02-24T15:38:03.698Z,6.20
2019-02-24T15:40:32.193Z,6.10
2019-02-24T15:43:01.545Z,6.10
2019-02-24T15:45:30.043Z,6.00
2019-02-24T15:47:58.409Z,6.00
2019-02-24T15:50:27.787Z,5.90
2019-02-24T15:52:56.214Z,5.90
2019-02-24T15:55:24.678Z,5.80
2019-02-24T15:57:55.014Z,5.80
2019-02-24T16:00:24.530Z,5.70
2019-02-24T16:03:01.144Z,5.70
2019-02-24T16:05:23.950Z,5.70
2019-02-24T16:07:52.349Z,5.70
2019-02-24T16:10:21.830Z,5.70
2019-02-24T16:12:50.225Z,5.70
2019-02-24T16:15:20.688Z,5.60
2019-02-24T16:17:49.139Z,5.60
2019-02-24T16:20:26.038Z,5.60
2019-02-24T16:22:54.464Z,5.60
2019-02-24T16:25:22.851Z,5.60
2019-02-24T16:27:52.373Z,5.50
2019-02-24T16:30:20.830Z,5.50
2019-02-24T16:32:49.200Z,5.50
2019-02-24T16:35:18.148Z,5.40
2019-02-24T16:37:46.583Z,5.30
2019-02-24T16:40:17.592Z,5.30
2019-02-24T16:42:46.026Z,5.20
2019-02-24T16:45:16.310Z,5.10
2019-02-24T16:47:45.070Z,5.10
2019-02-24T16:50:17.573Z,5.10
2019-02-24T16:52:48.364Z,5.00
2019-02-24T16:55:17.382Z,4.90
2019-02-24T16:57:45.822Z,4.90
2019-02-24T17:00:19.968Z,4.80
2019-02-24T17:02:48.382Z,4.80
2019-02-24T17:05:16.876Z,4.80
2019-02-24T17:07:45.312Z,4.70
2019-02-24T17:10:19.487Z,4.60
2019-02-24T17:12:47.900Z,4.60
2019-02-24T17:15:16.300Z,4.50
2019-02-24T17:17:44.678Z,4.40
2019-02-24T17:20:21.457Z,4.30
2019-02-24T17:22:49.838Z,4.20
2019-02-24T17:25:18.217Z,4.10
2019-02-24T17:27:46.654Z,4.10
2019-02-24T17:30:16.380Z,4.00
2019-02-24T17:32:46.091Z,4.00
2019-02-24T17:35:14.485Z,4.00
2019-02-24T17:37:42.919Z,4.00
2019-02-24T17:40:19.608Z,4.00
2019-02-24T17:42:52.742Z,4.00
2019-02-24T17:45:21.072Z,3.90
2019-02-24T17:47:49.495Z,3.90
2019-02-24T17:50:18.225Z,3.90
2019-02-24T17:52:46.633Z,3.80
2019-02-24T17:55:19.246Z,3.80
2019-02-24T17:57:47.659Z,3.70
2019-02-24T18:00:26.885Z,3.70
2019-02-24T18:02:56.573Z,3.60
2019-02-24T18:05:24.968Z,3.60
2019-02-24T18:07:55.351Z,3.60
2019-02-24T18:10:24.699Z,3.50
2019-02-24T18:12:53.075Z,3.50
2019-02-24T18:15:21.515Z,3.50
2019-02-24T18:17:49.997Z,3.40
2019-02-24T18:20:19.968Z,3.40
2019-02-24T18:22:48.440Z,3.40
2019-02-24T18:25:16.872Z,3.40
2019-02-24T18:27:45.375Z,3.30
2019-02-24T18:30:26.914Z,3.40
2019-02-24T18:32:55.618Z,3.30
2019-02-24T18:35:24.011Z,3.30
2019-02-24T18:37:52.434Z,3.30
2019-02-24T18:40:20.814Z,3.30
2019-02-24T18:42:49.210Z,3.30
2019-02-24T18:45:17.645Z,3.30
2019-02-24T18:47:46.102Z,3.30
2019-02-24T18:50:16.016Z,3.30
2019-02-24T18:52:44.445Z,3.30
2019-02-24T18:55:13.381Z,3.30
2019-02-24T18:57:41.762Z,3.30
2019-02-24T19:00:16.061Z,3.30
2019-02-24T19:02:44.929Z,3.30
2019-02-24T19:05:13.326Z,3.30
2019-02-24T19:07:41.746Z,3.30
2019-02-24T19:10:15.983Z,3.30
2019-02-24T19:12:44.748Z,3.30
2019-02-24T19:15:17.835Z,3.30
2019-02-24T19:17:46.336Z,3.30
2019-02-24T19:20:19.868Z,3.30
2019-02-24T19:22:48.260Z,3.40
2019-02-24T19:25:16.751Z,3.50
2019-02-24T19:27:45.159Z,3.50
2019-02-24T19:30:16.830Z,3.60
2019-02-24T19:32:45.238Z,3.60
2019-02-24T19:35:14.923Z,3.50
2019-02-24T19:37:43.345Z,3.50
2019-02-24T19:40:21.506Z,3.40
2019-02-24T19:42:49.890Z,3.30
2019-02-24T19:45:19.709Z,3.30
2019-02-24T19:47:48.218Z,3.30
2019-02-24T19:50:19.396Z,3.30
2019-02-24T19:52:47.811Z,3.20
2019-02-24T19:55:19.237Z,3.20
2019-02-24T19:57:47.709Z,3.10
2019-02-24T20:00:21.612Z,3.10
2019-02-24T20:02:50.064Z,3.10
2019-02-24T20:05:19.328Z,3.10
2019-02-24T20:07:47.974Z,3.00
2019-02-24T20:10:27.524Z,3.00
2019-02-24T20:12:55.931Z,3.00
2019-02-24T20:15:32.308Z,3.00
2019-02-24T20:18:01.100Z,2.90
2019-02-24T20:20:29.486Z,2.90
2019-02-24T20:22:57.903Z,2.90
2019-02-24T20:25:26.328Z,2.90
2019-02-24T20:27:54.732Z,2.90
2019-02-24T20:30:26.430Z,2.90
2019-02-24T20:32:54.809Z,2.90
2019-02-24T20:35:23.212Z,2.90
2019-02-24T20:37:51.606Z,2.90
2019-02-24T20:40:19.994Z,2.90
2019-02-24T20:42:48.420Z,2.80
2019-02-24T20:45:22.033Z,2.80
2019-02-24T20:47:50.466Z,2.80
2019-02-24T20:50:24.263Z,2.80
2019-02-24T20:52:52.647Z,2.80
2019-02-24T20:55:21.075Z,2.80
2019-02-24T20:57:49.454Z,2.80
2019-02-24T21:00:21.174Z,2.80
2019-02-24T21:02:49.914Z,2.80
2019-02-24T21:05:18.281Z,2.70
2019-02-24T21:07:46.684Z,2.70
2019-02-24T21:10:15.108Z,2.70
2019-02-24T21:12:43.530Z,2.70
2019-02-24T21:15:15.169Z,2.70
2019-02-24T21:17:43.587Z,2.70
2019-02-24T21:20:15.147Z,2.70
2019-02-24T21:22:43.524Z,2.70
2019-02-24T21:25:12.418Z,2.70
2019-02-24T21:27:40.859Z,2.70
2019-02-24T21:30:12.164Z,2.60
2019-02-24T21:32:40.566Z,2.60
2019-02-24T21:35:10.964Z,2.60
2019-02-24T21:37:39.350Z,2.60
2019-02-24T21:40:13.223Z,2.60
2019-02-24T21:42:41.602Z,2.60
2019-02-24T21:45:16.025Z,2.50
2019-02-24T21:47:44.886Z,2.50
2019-02-24T21:50:16.931Z,2.50
2019-02-24T21:52:45.397Z,2.50
2019-02-24T21:55:13.894Z,2.50
2019-02-24T21:57:42.662Z,2.50
2019-02-24T22:00:25.547Z,2.50
2019-02-24T22:02:53.943Z,2.50
2019-02-24T22:05:22.379Z,2.50
2019-02-24T22:07:50.806Z,2.50
2019-02-24T22:10:19.207Z,2.50
2019-02-24T22:12:47.604Z,2.50
2019-02-24T22:15:18.066Z,2.50
2019-02-24T22:17:47.469Z,2.50
2019-02-24T22:20:15.945Z,2.40
2019-02-24T22:22:44.670Z,2.50
2019-02-24T22:25:14.616Z,2.50
2019-02-24T22:27:43.065Z,2.50
2019-02-24T22:30:17.666Z,2.40
2019-02-24T22:32:46.060Z,2.50
2019-02-24T22:35:15.556Z,2.50
2019-02-24T22:37:43.999Z,2.40
2019-02-24T22:40:13.566Z,2.40
2019-02-24T22:42:50.005Z,2.40
2019-02-24T22:45:20.011Z,2.40
2019-02-24T22:47:48.381Z,2.40
2019-02-24T22:50:17.786Z,2.40
2019-02-24T22:52:46.570Z,2.40
2019-02-24T22:55:15.909Z,2.40
2019-02-24T22:57:44.368Z,2.40
2019-02-24T23:00:53.059Z,2.30
2019-02-24T23:03:23.586Z,2.30
2019-02-24T23:05:51.969Z,2.30
2019-02-24T23:08:20.414Z,2.30
2019-02-24T23:10:48.862Z,2.20
2019-02-24T23:13:17.654Z,2.20
2019-02-24T23:15:46.152Z,2.20
2019-02-24T23:18:14.548Z,2.20
2019-02-24T23:20:42.996Z,2.20
2019-02-24T23:23:11.812Z,2.20
2019-02-24T23:25:48.893Z,2.20
2019-02-24T23:28:17.274Z,2.20
2019-02-24T23:30:46.595Z,2.20
2019-02-24T23:33:15.008Z,2.20
2019-02-24T23:35:43.414Z,2.20
2019-02-24T23:38:11.856Z,2.20
2019-02-24T23:40:40.293Z,2.20
2019-02-24T23:43:08.740Z,2.20
2019-02-24T23:45:37.125Z,2.20
2019-02-24T23:48:05.543Z,2.20
2019-02-24T23:50:33.983Z,2.20
2019-02-24T23:53:02.364Z,2.20
2019-02-24T23:55:30.831Z,2.20
2019-02-24T23:57:59.234Z,2.20
